Time;durP1;ratioP1;P1;durP2;ratioP2;P2;SDS_P1;SDS_P2;PMS_P1;PMS_P2;Temp;Humidity;BMP_temperature;BMP_pressure;BME280_temperature;BME280_humidity;BME280_pressure;Samples;Min_cycle;Max_cycle;Signal;HPM_P1;HPM_P2
2024/03/21 00:02:10;;;;;;;8.33;5.70;;;;;;;10.10;68.07;99122.41;5113920;28;39764;-79
2024/03/21 00:04:36;;;;;;;7.90;5.27;;;;;;;10.05;67.47;99124.47;5095459;28;43613;-77
2024/03/21 00:07:05;;;;;;;6.20;5.33;;;;;;;10.02;67.61;99121.97;5095873;28;42976;-79
2024/03/21 00:09:31;;;;;;;7.50;5.77;;;;;;;9.97;67.34;99121.41;5113488;28;42279;-81
2024/03/21 00:12:00;;;;;;;7.30;5.40;;;;;;;9.92;67.64;99126.06;5114177;28;39868;-78
2024/03/21 00:14:27;;;;;;;7.60;5.33;;;;;;;9.87;68.60;99109.63;5113453;28;42623;-77
2024/03/21 00:16:55;;;;;;;9.13;6.93;;;;;;;9.82;68.51;99111.66;5095431;28;42724;-77
2024/03/21 00:19:22;;;;;;;7.90;6.03;;;;;;;9.76;68.41;99107.56;5095155;28;41280;-78
2024/03/21 00:21:50;;;;;;;7.50;5.80;;;;;;;9.72;68.07;99106.88;5112148;28;40729;-78
2024/03/21 00:24:17;;;;;;;8.33;6.27;;;;;;;9.68;67.96;99113.28;5095491;28;40886;-79
2024/03/21 00:26:45;;;;;;;8.87;6.20;;;;;;;9.65;68.02;99120.50;5094967;28;41905;-79
2024/03/21 00:29:13;;;;;;;7.40;5.57;;;;;;;9.61;68.17;99126.91;5113535;28;42915;-78
2024/03/21 00:31:40;;;;;;;8.87;5.57;;;;;;;9.57;68.03;99123.56;5094662;28;38690;-77
2024/03/21 00:34:08;;;;;;;8.93;6.87;;;;;;;9.43;68.46;99107.59;5113313;28;42720;-77
2024/03/21 00:36:36;;;;;;;7.60;5.40;;;;;;;9.51;68.27;99116.00;5111792;28;43407;-79
2024/03/21 00:39:02;;;;;;;7.30;4.83;;;;;;;9.47;68.65;99125.00;5095049;28;43175;-78
2024/03/21 00:41:30;;;;;;;8.67;5.77;;;;;;;9.45;68.33;99115.44;5094811;28;38860;-80
2024/03/21 00:43:56;;;;;;;8.17;5.97;;;;;;;9.40;68.57;99113.03;5112245;28;41470;-76
2024/03/21 00:46:25;;;;;;;6.60;5.17;;;;;;;9.37;68.57;99121.16;5111687;28;43737;-80
2024/03/21 00:48:52;;;;;;;6.70;5.30;;;;;;;9.23;68.67;99091.97;5111018;28;42701;-79
2024/03/21 00:51:19;;;;;;;7.27;5.27;;;;;;;9.31;68.52;99116.19;5111747;28;40095;-78
2024/03/21 00:53:45;;;;;;;6.33;5.00;;;;;;;9.28;68.50;99116.34;5110957;28;41875;-78
2024/03/21 00:56:13;;;;;;;7.67;5.27;;;;;;;9.24;68.56;99117.47;5112453;28;42467;-80
2024/03/21 00:58:39;;;;;;;7.60;5.70;;;;;;;9.16;68.86;99095.84;5113073;28;42025;-77
2024/03/21 01:01:07;;;;;;;6.60;5.30;;;;;;;9.20;69.09;99118.56;5112896;28;39916;-78
2024/03/21 01:03:34;;;;;;;7.60;5.07;;;;;;;9.17;69.45;99108.13;5111579;28;41144;-78
2024/03/21 01:06:02;;;;;;;7.70;5.57;;;;;;;9.15;69.99;99104.75;5111137;28;41697;-76
2024/03/21 01:08:28;;;;;;;9.20;5.63;;;;;;;9.12;70.68;99099.63;5111208;28;41159;-77
2024/03/21 01:10:56;;;;;;;8.00;6.23;;;;;;;9.10;70.56;99107.63;5111516;28;39759;-79
2024/03/21 01:13:22;;;;;;;7.53;5.70;;;;;;;8.91;70.11;99086.56;5094785;28;41007;-79
2024/03/21 01:15:50;;;;;;;7.93;5.70;;;;;;;9.00;70.19;99107.25;5111379;28;42425;-79
2024/03/21 01:18:17;;;;;;;6.70;5.57;;;;;;;8.98;70.11;99098.53;5111620;28;40927;-78
2024/03/21 01:20:45;;;;;;;7.33;5.10;;;;;;;9.02;69.93;99111.59;5112398;28;40752;-78
2024/03/21 01:23:12;;;;;;;9.10;6.37;;;;;;;9.00;70.67;99101.97;5094561;28;40591;-79
2024/03/21 01:25:39;;;;;;;7.00;5.23;;;;;;;8.98;70.93;99097.69;5112232;28;42859;-79
2024/03/21 01:28:06;;;;;;;7.93;5.93;;;;;;;8.87;71.28;99079.75;5111439;28;42285;-80
2024/03/21 01:30:34;;;;;;;7.43;5.83;;;;;;;8.94;71.24;99097.00;5110908;28;39071;-76
2024/03/21 01:33:03;;;;;;;9.03;5.87;;;;;;;8.95;70.78;99098.69;5111586;28;42707;-77
2024/03/21 01:35:31;;;;;;;8.37;5.40;;;;;;;8.94;70.94;99102.28;5094198;28;43134;-77
2024/03/21 01:37:59;;;;;;;5.80;5.10;;;;;;;8.94;70.88;99098.78;5111228;28;42144;-79
2024/03/21 01:40:27;;;;;;;7.83;5.13;;;;;;;8.93;70.51;99100.56;5112254;28;39972;-79
2024/03/21 01:42:53;;;;;;;6.50;4.97;;;;;;;8.93;70.63;99100.56;5094286;28;42273;-80
2024/03/21 01:45:21;;;;;;;6.87;5.47;;;;;;;8.94;70.33;99102.28;5093738;28;43160;-76
2024/03/21 01:47:47;;;;;;;6.90;4.70;;;;;;;8.91;70.17;99096.28;5094183;28;41278;-79
2024/03/21 01:50:15;;;;;;;7.60;5.63;;;;;;;8.93;70.25;99100.56;5111295;28;39915;-79
2024/03/21 01:52:43;;;;;;;7.07;4.80;;;;;;;8.91;70.04;99094.50;5094209;28;42181;-78
2024/03/21 01:55:14;;;;;;;6.80;4.67;;;;;;;8.90;70.28;99090.16;5093435;28;41900;-77
2024/03/21 01:57:41;;;;;;;6.03;4.50;;;;;;;8.79;70.33;99081.94;5108057;28;43358;-76
2024/03/21 02:00:09;;;;;;;6.37;4.80;;;;;;;8.88;70.11;99091.19;5113527;28;40925;-77
2024/03/21 02:02:36;;;;;;;8.03;5.20;;;;;;;8.87;70.13;99100.91;5115894;28;41883;-79
2024/03/21 02:05:04;;;;;;;6.27;5.03;;;;;;;8.75;70.23;99084.81;5115438;28;43897;-76
2024/03/21 02:07:31;;;;;;;5.67;4.73;;;;;;;8.73;70.59;99076.97;5096565;28;41411;-78
2024/03/21 02:09:59;;;;;;;7.03;4.73;;;;;;;8.82;70.39;99092.34;5114079;28;39959;-76
2024/03/21 02:12:51;;;;;;;7.53;5.60;;;;;;;8.82;70.83;99097.63;5097661;28;41513;-78
2024/03/21 02:15:19;;;;;;;5.90;4.60;;;;;;;8.80;70.28;99088.06;5113146;28;43715;-77
2024/03/21 02:17:46;;;;;;;5.37;4.10;;;;;;;8.82;70.13;99086.19;5102616;28;41230;-78
2024/03/21 02:20:13;;;;;;;7.47;5.43;;;;;;;8.79;70.34;99079.28;5124677;28;40429;-76
2024/03/21 02:22:41;;;;;;;6.80;4.57;;;;;;;8.80;71.14;99078.34;5114974;28;42226;-77
2024/03/21 02:25:10;;;;;;;7.03;5.17;;;;;;;8.79;71.34;99076.66;5113863;28;43609;-78
2024/03/21 02:27:38;;;;;;;7.70;5.33;;;;;;;8.81;71.18;99087.13;5115520;28;43298;-76
2024/03/21 02:30:06;;;;;;;7.50;5.23;;;;;;;8.80;70.98;99083.63;5113429;28;39952;-76
2024/03/21 02:32:34;;;;;;;6.20;4.60;;;;;;;8.80;70.75;99088.91;5114099;28;41776;-79
2024/03/21 02:35:02;;;;;;;5.60;4.57;;;;;;;8.84;70.61;99095.75;5113777;28;41589;-79
2024/03/21 02:37:29;;;;;;;6.30;4.33;;;;;;;8.84;70.35;99105.47;5114098;28;42242;-76
2024/03/21 02:39:57;;;;;;;6.57;4.90;;;;;;;8.83;70.47;99104.63;5096735;28;39684;-76
2024/03/21 02:42:25;;;;;;;7.70;5.67;;;;;;;8.82;70.33;99102.91;5097033;28;40608;-78
2024/03/21 02:44:52;;;;;;;8.90;5.90;;;;;;;8.82;70.56;99100.25;5096287;28;41779;-78
2024/03/21 02:47:20;;;;;;;6.67;4.87;;;;;;;8.75;70.37;99093.59;5113495;28;42409;-77
2024/03/21 02:49:46;;;;;;;6.57;4.73;;;;;;;8.81;70.37;99100.34;5114675;28;40876;-80
2024/03/21 02:52:14;;;;;;;7.77;5.40;;;;;;;8.67;70.30;99077.28;5114109;28;41782;-78
2024/03/21 02:54:40;;;;;;;6.10;4.90;;;;;;;8.68;70.54;99089.56;5113164;28;41664;-78
2024/03/21 02:57:12;;;;;;;7.23;5.13;;;;;;;8.75;70.68;99101.53;5113843;28;40441;-80
2024/03/21 02:59:38;;;;;;;7.73;5.53;;;;;;;8.71;70.63;99107.03;5095894;28;38856;-79
2024/03/21 03:02:05;;;;;;;8.07;4.90;;;;;;;8.64;70.71;99091.50;5113875;28;41701;-76
2024/03/21 03:04:32;;;;;;;8.10;5.73;;;;;;;8.64;71.38;99093.31;5096163;28;41602;-79
2024/03/21 03:07:00;;;;;;;6.70;5.83;;;;;;;8.54;71.45;99092.03;5096709;28;41142;-79
2024/03/21 03:09:27;;;;;;;6.53;4.70;;;;;;;8.59;71.26;99100.59;5114429;28;41132;-80
2024/03/21 03:11:54;;;;;;;7.53;5.37;;;;;;;8.55;71.82;99094.59;5112454;28;40744;-77
2024/03/21 03:14:22;;;;;;;8.23;5.27;;;;;;;8.44;71.90;99088.16;5096078;28;42548;-80
2024/03/21 03:16:49;;;;;;;6.07;4.97;;;;;;;8.50;71.88;99099.28;5114068;28;42287;-79
2024/03/21 03:19:16;;;;;;;7.97;5.10;;;;;;;8.48;71.83;99097.63;5114761;28;40952;-76
2024/03/21 03:21:43;;;;;;;6.77;5.57;;;;;;;8.44;72.03;99096.06;5112941;28;41317;-77
2024/03/21 03:24:09;;;;;;;9.10;6.23;;;;;;;8.29;71.98;99080.03;5113103;28;41513;-78
2024/03/21 03:26:37;;;;;;;6.60;4.97;;;;;;;8.30;72.13;99084.38;5114274;28;42271;-79
2024/03/21 03:29:03;;;;;;;7.43;5.17;;;;;;;8.29;72.63;99077.38;5113405;28;39716;-77
2024/03/21 03:31:32;;;;;;;10.10;6.47;;;;;;;8.36;72.74;99091.19;5112764;28;40692;-78
2024/03/21 03:36:59;;;;;;;8.60;6.17;;;;;;;8.27;73.28;99089.84;5051149;28;44218;-77
2024/03/21 03:39:26;;;;;;;6.50;5.30;;;;;;;8.23;72.76;99090.03;5034251;28;40029;-78
2024/03/21 03:41:54;;;;;;;7.07;4.93;;;;;;;8.19;73.04;99091.13;5066646;28;41689;-77
2024/03/21 03:44:21;;;;;;;7.73;5.53;;;;;;;8.16;72.84;99089.47;5096130;28;41943;-77
2024/03/21 03:46:50;;;;;;;5.87;4.73;;;;;;;8.12;72.92;99090.56;5095672;28;40931;-80
2024/03/21 03:49:18;;;;;;;8.93;5.67;;;;;;;8.03;73.23;99082.25;5095600;28;39145;-79
2024/03/21 03:51:44;;;;;;;6.97;5.03;;;;;;;8.05;73.47;99089.16;5112641;28;43017;-80
2024/03/21 03:54:11;;;;;;;6.77;5.20;;;;;;;8.02;73.04;99105.16;5112664;28;43856;-77
2024/03/21 03:56:38;;;;;;;7.40;4.97;;;;;;;8.00;73.33;99101.72;5095313;28;41418;-77
2024/03/21 03:59:05;;;;;;;6.90;5.13;;;;;;;7.99;73.37;99104.44;5095818;28;38895;-78
2024/03/21 04:01:32;;;;;;;5.47;4.70;;;;;;;7.96;73.38;99097.50;5113151;28;41860;-78
2024/03/21 04:04:01;;;;;;;7.20;4.40;;;;;;;7.94;74.31;99096.72;5114062;28;43793;-79
2024/03/21 04:06:27;;;;;;;7.23;5.77;;;;;;;7.91;77.56;99071.34;5112524;28;43192;-78
2024/03/21 04:08:54;;;;;;;8.07;6.63;;;;;;;7.90;76.68;99076.72;5112698;28;39772;-77
2024/03/21 04:11:21;;;;;;;9.03;5.83;;;;;;;7.90;76.80;99079.38;5112336;28;41675;-78
2024/03/21 04:13:48;;;;;;;7.07;5.40;;;;;;;7.90;76.24;99079.38;5113651;28;43105;-76
2024/03/21 04:16:16;;;;;;;7.97;6.30;;;;;;;7.71;75.84;99062.69;5095320;28;41953;-76
2024/03/21 04:18:44;;;;;;;7.97;5.40;;;;;;;7.66;75.35;99054.19;5112605;28;40911;-79
2024/03/21 04:21:12;;;;;;;5.93;5.17;;;;;;;7.88;75.37;99091.75;5113438;28;41756;-79
2024/03/21 04:23:39;;;;;;;6.00;4.70;;;;;;;7.88;75.05;99099.69;5095148;28;42851;-76
2024/03/21 04:26:06;;;;;;;5.57;4.50;;;;;;;7.85;74.94;99089.25;5111527;28;40688;-78
2024/03/21 04:28:33;;;;;;;7.90;4.83;;;;;;;7.75;74.95;99075.69;5112106;28;39854;-77
2024/03/21 04:30:59;;;;;;;5.93;4.47;;;;;;;7.82;75.09;99090.25;5111915;28;41890;-78
2024/03/21 04:33:27;;;;;;;6.13;4.73;;;;;;;7.82;74.61;99092.03;5112824;28;43178;-77
2024/03/21 04:35:53;;;;;;;5.33;4.30;;;;;;;7.80;74.74;99088.63;5094731;28;41225;-78
2024/03/21 04:38:22;;;;;;;4.90;4.23;;;;;;;7.79;74.66;99092.22;5112561;28;41224;-77
2024/03/21 04:40:50;;;;;;;5.80;4.40;;;;;;;7.77;74.76;99100.19;5111384;28;42159;-78
2024/03/21 04:43:18;;;;;;;5.60;4.33;;;;;;;7.73;74.73;99100.38;5095020;28;44258;-78
2024/03/21 04:45:45;;;;;;;6.27;4.60;;;;;;;7.71;74.61;99102.25;5094760;28;41093;-78
2024/03/21 04:48:12;;;;;;;6.53;4.57;;;;;;;7.69;74.61;99109.38;5095021;28;40209;-79
2024/03/21 04:50:39;;;;;;;6.90;5.00;;;;;;;7.66;74.67;99102.47;5111694;28;41949;-77
2024/03/21 04:53:06;;;;;;;6.20;4.77;;;;;;;7.62;74.51;99111.44;5095146;28;45201;-76
2024/03/21 04:55:37;;;;;;;5.77;4.57;;;;;;;7.60;74.57;99101.88;5111105;28;41146;-78
2024/03/21 04:58:04;;;;;;;5.97;4.30;;;;;;;7.56;74.89;99102.03;5095130;28;40044;-78
2024/03/21 05:00:31;;;;;;;5.83;4.93;;;;;;;7.53;74.81;99096.91;5094554;28;40552;-78
2024/03/21 05:02:58;;;;;;;5.50;4.10;;;;;;;7.51;74.80;99098.75;5111898;28;41654;-78
2024/03/21 05:05:25;;;;;;;6.70;5.13;;;;;;;7.41;75.26;99086.94;5111577;28;40891;-76
2024/03/21 05:07:52;;;;;;;6.97;4.83;;;;;;;7.46;75.39;99108.66;5113324;28;40020;-76
2024/03/21 05:10:19;;;;;;;7.27;4.77;;;;;;;7.46;75.13;99110.44;5099166;28;40243;-78
2024/03/21 05:12:47;;;;;;;6.23;4.40;;;;;;;7.37;75.26;99097.69;5112374;28;43217;-78
2024/03/21 05:15:14;;;;;;;6.17;5.53;;;;;;;7.40;75.34;99101.03;5112410;28;42267;-78
2024/03/21 05:17:41;;;;;;;8.37;5.30;;;;;;;7.39;76.02;99109.88;5112091;28;40693;-78
2024/03/21 05:20:10;;;;;;;7.20;5.07;;;;;;;7.38;76.26;99110.78;5111336;28;40616;-78
2024/03/21 05:22:37;;;;;;;6.53;4.87;;;;;;;7.35;75.92;99105.66;5111690;28;42747;-76
2024/03/21 05:25:07;;;;;;;7.33;4.70;;;;;;;7.33;75.87;99110.13;5111082;28;41079;-78
2024/03/21 05:27:34;;;;;;;5.20;4.27;;;;;;;7.33;75.96;99110.13;5111491;28;39077;-79
2024/03/21 05:30:02;;;;;;;5.63;4.50;;;;;;;7.32;75.78;99115.47;5111957;28;41698;-80
2024/03/21 05:32:31;;;;;;;7.43;5.57;;;;;;;7.31;75.49;99116.38;5109314;28;42589;-78
2024/03/21 05:34:57;;;;;;;6.30;4.80;;;;;;;7.27;75.65;99115.69;5113367;28;41546;-79
2024/03/21 05:37:25;;;;;;;5.63;5.00;;;;;;;7.25;75.68;99107.00;5114981;28;39696;-77
2024/03/21 05:39:51;;;;;;;8.57;4.77;;;;;;;7.30;75.55;99114.69;5114302;28;41941;-78
2024/03/21 05:42:18;;;;;;;7.03;5.07;;;;;;;7.17;75.97;99077.53;5116122;28;42880;-78
2024/03/21 05:44:45;;;;;;;5.07;4.57;;;;;;;7.25;75.55;99090.34;5097307;28;41151;-76
2024/03/21 05:47:22;;;;;;;5.43;4.63;;;;;;;7.37;75.74;99106.44;5114785;28;38978;-79
2024/03/21 05:49:49;;;;;;;8.00;5.30;;;;;;;7.40;75.44;99101.03;5114459;28;41187;-77
2024/03/21 05:52:16;;;;;;;7.37;5.60;;;;;;;7.43;75.19;99103.50;5114754;28;43029;-78
2024/03/21 05:54:48;;;;;;;7.30;5.27;;;;;;;7.48;75.24;99109.44;5114297;28;42215;-78
2024/03/21 05:57:15;;;;;;;5.83;4.60;;;;;;;7.53;75.34;99111.88;5114463;28;38962;-76
2024/03/21 05:59:42;;;;;;;5.67;4.80;;;;;;;7.57;75.02;99109.00;5114457;28;42522;-77
2024/03/21 06:02:09;;;;;;;6.67;4.43;;;;;;;7.65;75.14;99113.09;5115684;28;43531;-76
2024/03/21 06:04:37;;;;;;;6.20;4.60;;;;;;;7.72;74.98;99115.34;5114376;28;43238;-77
2024/03/21 06:07:05;;;;;;;5.47;4.27;;;;;;;7.84;74.77;99119.19;5097370;28;39918;-76
2024/03/21 06:09:32;;;;;;;6.43;4.97;;;;;;;7.97;74.32;99122.09;5115286;28;41500;-78
2024/03/21 06:11:59;;;;;;;6.17;4.80;;;;;;;8.09;74.52;99122.38;5114162;28;42027;-78
2024/03/21 06:14:26;;;;;;;7.23;5.80;;;;;;;8.20;74.59;99130.63;5113871;28;42109;-78
2024/03/21 06:16:53;;;;;;;6.03;4.83;;;;;;;8.30;74.61;99126.59;5114300;28;40172;-76
2024/03/21 06:19:19;;;;;;;6.93;5.13;;;;;;;8.42;74.45;99134.88;5115447;28;42015;-78
2024/03/21 06:21:48;;;;;;;8.07;5.67;;;;;;;8.39;74.62;99124.50;5115307;28;43680;-76
2024/03/21 06:24:15;;;;;;;9.37;5.90;;;;;;;8.58;75.00;99146.38;5114211;28;41164;-79
2024/03/21 06:26:42;;;;;;;7.93;5.57;;;;;;;8.71;74.42;99152.78;5114158;28;40017;-77
2024/03/21 06:29:09;;;;;;;8.87;6.00;;;;;;;8.92;74.17;99151.66;5097033;28;41967;-77
2024/03/21 06:31:36;;;;;;;7.07;6.07;;;;;;;9.10;74.17;99156.97;5113561;28;41671;-81
2024/03/21 06:34:02;;;;;;;7.40;5.73;;;;;;;9.17;73.86;99158.34;5114417;28;42489;-78
2024/03/21 06:36:30;;;;;;;7.47;5.43;;;;;;;9.27;73.64;99163.06;5115175;28;39697;-78
2024/03/21 06:38:58;;;;;;;7.97;5.37;;;;;;;9.52;73.92;99173.19;5114192;28;41867;-78
2024/03/21 06:41:26;;;;;;;7.70;6.33;;;;;;;9.84;73.91;99170.63;5096852;28;41920;-77
2024/03/21 06:43:52;;;;;;;8.43;6.67;;;;;;;10.12;73.51;99172.63;5113829;28;42315;-78
2024/03/21 06:46:19;;;;;;;11.03;6.23;;;;;;;10.33;73.47;99174.94;5113443;28;40076;-79
2024/03/21 06:48:46;;;;;;;8.83;6.73;;;;;;;10.49;73.03;99160.84;5096755;28;42206;-79
2024/03/21 06:51:13;;;;;;;10.30;7.10;;;;;;;10.62;72.77;99173.28;5113414;28;41753;-78
2024/03/21 06:53:40;;;;;;;7.57;6.77;;;;;;;10.69;72.87;99168.47;5113516;28;42928;-79
2024/03/21 06:56:11;;;;;;;9.17;6.63;;;;;;;10.78;72.75;99167.94;5113377;28;40913;-79
2024/03/21 06:58:38;;;;;;;8.43;6.57;;;;;;;10.96;72.80;99166.88;5112905;28;42106;-78
2024/03/21 07:01:05;;;;;;;8.20;6.60;;;;;;;11.29;72.29;99179.03;5095383;28;44546;-79
2024/03/21 07:03:32;;;;;;;8.67;6.77;;;;;;;11.69;72.19;99183.63;5112536;28;41062;-79
2024/03/21 07:05:59;;;;;;;8.20;6.90;;;;;;;12.39;71.41;99192.47;5095233;28;42652;-79
2024/03/21 07:08:26;;;;;;;12.20;7.50;;;;;;;12.73;69.69;99193.81;5113887;28;42546;-79
2024/03/21 07:10:55;;;;;;;8.23;6.63;;;;;;;12.72;69.48;99192.09;5094984;28;41567;-76
2024/03/21 07:13:23;;;;;;;8.50;6.47;;;;;;;12.69;69.32;99188.78;5112980;28;41170;-79
2024/03/21 07:15:50;;;;;;;7.20;6.40;;;;;;;12.64;69.62;99182.91;5114116;28;39826;-76
2024/03/21 07:18:16;;;;;;;8.30;6.63;;;;;;;12.47;69.82;99160.97;5112550;28;41769;-78
2024/03/21 07:20:44;;;;;;;7.87;7.07;;;;;;;12.65;69.63;99187.28;5112723;28;42607;-80
2024/03/21 07:23:11;;;;;;;8.67;6.83;;;;;;;12.73;69.76;99187.63;5113262;28;43113;-78
2024/03/21 07:25:40;;;;;;;7.90;6.53;;;;;;;12.93;69.82;99187.16;5095435;28;38981;-80
2024/03/21 07:28:07;;;;;;;7.80;6.30;;;;;;;13.29;69.64;99187.38;5114497;28;41739;-80
2024/03/21 07:30:36;;;;;;;9.20;7.00;;;;;;;14.25;68.80;99190.38;5095460;28;41807;-79
2024/03/21 07:33:02;;;;;;;10.60;7.47;;;;;;;15.34;64.63;99205.34;5096026;28;41945;-79
2024/03/21 07:35:30;;;;;;;10.10;8.00;;;;;;;15.93;61.96;99192.75;5114080;28;40617;-80
2024/03/21 07:37:56;;;;;;;10.53;7.77;;;;;;;16.66;59.82;99210.06;5112720;28;40656;-78
2024/03/21 07:40:24;;;;;;;8.97;7.20;;;;;;;17.19;57.56;99229.66;5112312;28;44187;-78
2024/03/21 07:42:50;;;;;;;9.47;7.43;;;;;;;17.40;55.10;99257.34;5095506;28;44193;-78
2024/03/21 07:45:18;;;;;;;8.83;7.40;;;;;;;17.33;55.14;99248.09;5112750;28;41108;-79
2024/03/21 07:47:45;;;;;;;7.63;6.63;;;;;;;17.26;55.53;99246.09;5113134;28;41630;-80
2024/03/21 07:50:13;;;;;;;8.83;6.70;;;;;;;17.68;54.74;99255.03;5095095;28;44244;-78
2024/03/21 07:52:39;;;;;;;9.77;7.10;;;;;;;18.47;53.15;99270.38;5113913;28;42121;-79
2024/03/21 07:55:07;;;;;;;7.90;6.37;;;;;;;18.94;51.50;99279.59;5095345;28;41330;-78
2024/03/21 07:57:34;;;;;;;8.03;6.43;;;;;;;19.06;51.36;99274.09;5095288;28;40699;-80
2024/03/21 08:00:01;;;;;;;6.77;5.90;;;;;;;18.88;50.76;99272.09;5112569;28;42804;-79
2024/03/21 08:02:30;;;;;;;7.20;6.00;;;;;;;18.68;51.49;99267.66;5114008;28;42355;-80
2024/03/21 08:04:59;;;;;;;6.00;5.40;;;;;;;18.43;51.65;99286.88;5112520;28;40691;-78
2024/03/21 08:07:26;;;;;;;8.77;6.27;;;;;;;18.25;52.07;99286.66;5095094;28;40618;-78
2024/03/21 08:09:54;;;;;;;8.20;6.40;;;;;;;18.22;51.87;99286.94;5095199;28;42873;-80
2024/03/21 08:12:20;;;;;;;8.03;6.63;;;;;;;18.21;51.63;99275.34;5113599;28;42198;-79
2024/03/21 08:14:48;;;;;;;7.60;6.27;;;;;;;18.42;51.32;99282.53;5095428;28;41164;-78
2024/03/21 08:17:14;;;;;;;11.50;6.63;;;;;;;18.53;50.43;99282.41;5112496;28;43944;-80
2024/03/21 08:19:44;;;;;;;6.83;6.17;;;;;;;18.82;50.51;99275.31;5111948;28;43088;-80
2024/03/21 08:22:12;;;;;;;6.80;5.63;;;;;;;19.31;50.62;99266.34;5113277;28;42367;-78
2024/03/21 08:24:39;;;;;;;7.83;5.67;;;;;;;19.56;49.77;99281.06;5113212;28;40124;-80
2024/03/21 08:27:06;;;;;;;7.73;5.83;;;;;;;19.75;49.39;99279.38;5113553;28;41714;-81
2024/03/21 08:29:33;;;;;;;7.90;6.07;;;;;;;19.75;49.30;99274.00;5111399;28;41811;-79
2024/03/21 08:32:00;;;;;;;5.67;5.17;;;;;;;19.70;49.41;99272.56;5094766;28;41397;-79
2024/03/21 08:34:27;;;;;;;6.37;5.33;;;;;;;19.64;49.60;99262.41;5112016;28;41840;-78
2024/03/21 08:36:55;;;;;;;7.93;5.90;;;;;;;19.46;48.93;99249.81;5114223;27;20222;-80
2024/03/21 08:39:24;;;;;;;8.10;6.53;;;;;;;19.43;49.11;99258.97;5111845;28;42383;-80
2024/03/21 08:41:51;;;;;;;7.07;6.00;;;;;;;19.38;49.03;99251.38;5111813;28;42319;-78
2024/03/21 08:44:18;;;;;;;5.80;5.03;;;;;;;19.40;49.19;99259.28;5111983;28;38853;-79
2024/03/21 08:46:45;;;;;;;6.17;5.37;;;;;;;19.36;48.52;99269.47;5113136;28;42668;-78
2024/03/21 08:49:12;;;;;;;6.80;5.70;;;;;;;19.21;48.90;99240.47;5111695;28;42856;-77
2024/03/21 08:51:45;;;;;;;7.60;5.63;;;;;;;19.43;49.20;99258.97;5111492;28;42710;-80
2024/03/21 08:54:13;;;;;;;7.50;5.77;;;;;;;19.61;48.62;99256.47;5112906;28;40139;-78
2024/03/21 08:56:41;;;;;;;6.37;5.70;;;;;;;19.72;48.50;99259.84;5111739;28;42091;-81
2024/03/21 08:59:19;;;;;;;6.57;5.10;;;;;;;19.71;48.90;99268.91;5108683;28;43427;-80
2024/03/21 09:01:45;;;;;;;5.07;4.57;;;;;;;19.79;48.58;99259.25;5111485;28;42474;-78
2024/03/21 09:04:13;;;;;;;5.60;4.57;;;;;;;19.97;48.31;99284.41;5113423;28;40848;-81
2024/03/21 09:06:39;;;;;;;5.57;4.90;;;;;;;20.11;48.18;99283.97;5094734;28;40477;-80
2024/03/21 09:09:15;;;;;;;5.10;4.60;;;;;;;20.30;47.26;99291.97;5107363;28;42461;-78
2024/03/21 09:11:43;;;;;;;5.53;4.30;;;;;;;20.80;47.40;99273.63;5111035;28;41396;-80
2024/03/21 09:14:11;;;;;;;5.87;4.33;;;;;;;21.46;45.82;99278.75;5094589;28;38806;-78
2024/03/21 09:16:37;;;;;;;6.80;4.73;;;;;;;21.60;45.17;99296.22;5112489;28;42673;-79
2024/03/21 09:19:05;;;;;;;7.00;4.23;;;;;;;21.50;45.41;99290.06;5112752;28;43816;-80
2024/03/21 09:21:31;;;;;;;5.60;4.50;;;;;;;22.64;43.81;99315.16;5112296;28;42926;-78
2024/03/21 09:23:59;;;;;;;4.73;4.23;;;;;;;24.95;40.22;99330.25;5094265;28;40985;-81
2024/03/21 09:26:25;;;;;;;4.90;4.17;;;;;;;26.46;36.84;99313.19;5111033;28;42884;-78
2024/03/21 09:28:55;;;;;;;5.87;4.40;;;;;;;26.79;36.47;99363.44;5093950;28;44250;-77
2024/03/21 09:31:21;;;;;;;4.27;3.87;;;;;;;26.35;37.43;99359.81;5110910;28;41664;-77
2024/03/21 09:33:51;;;;;;;4.80;4.37;;;;;;;25.85;37.25;99353.09;5112555;28;39893;-81
2024/03/21 09:36:17;;;;;;;4.50;4.10;;;;;;;25.55;38.17;99343.97;5110935;28;44010;-81
2024/03/21 09:38:45;;;;;;;6.23;4.37;;;;;;;25.10;38.16;99352.84;5094383;28;42222;-80
2024/03/21 09:41:14;;;;;;;6.93;4.60;;;;;;;25.44;38.68;99340.81;5111044;28;41131;-78
2024/03/21 09:43:41;;;;;;;4.90;4.30;;;;;;;25.85;37.94;99352.25;5094327;28;39316;-81
2024/03/21 09:46:15;;;;;;;4.40;4.00;;;;;;;26.51;36.83;99359.69;5093288;28;40484;-78
2024/03/21 09:48:42;;;;;;;5.67;4.50;;;;;;;27.24;34.62;99382.47;5110801;28;42742;-81
2024/03/21 09:51:16;;;;;;;5.00;4.37;;;;;;;26.62;35.66;99375.53;5111889;28;42979;-81
2024/03/21 09:53:43;;;;;;;5.90;4.33;;;;;;;26.39;35.88;99378.28;5107917;28;40964;-80
2024/03/21 09:56:13;;;;;;;5.17;4.67;;;;;;;26.39;36.49;99372.88;5110821;28;42085;-81
2024/03/21 09:58:40;;;;;;;4.47;4.07;;;;;;;26.47;36.79;99369.22;5110757;28;41742;-81
2024/03/21 10:01:18;;;;;;;6.13;4.63;;;;;;;26.78;36.00;99372.63;5110762;28;42162;-81
2024/03/21 10:03:49;;;;;;;5.67;4.93;;;;;;;27.16;35.65;99376.13;5107997;28;40843;-82
2024/03/21 10:06:15;;;;;;;7.23;5.20;;;;;;;27.52;34.77;99384.31;5109872;28;42137;-80
2024/03/21 10:08:43;;;;;;;5.47;4.47;;;;;;;27.68;34.18;99376.97;5093539;28;41735;-79
2024/03/21 10:11:09;;;;;;;5.37;4.77;;;;;;;28.03;33.65;99388.84;5110093;28;42243;-83
2024/03/21 10:13:41;;;;;;;4.55;4.18;;;;;;;28.52;33.67;99383.44;5110706;28;40864;-79
2024/03/21 10:16:11;;;;;;;6.97;4.60;;;;;;;28.70;32.69;99391.09;5093081;28;41340;-81
2024/03/21 10:18:40;;;;;;;5.55;5.05;;;;;;;29.27;32.02;99397.16;5093201;28;42930;-79
2024/03/21 10:21:14;;;;;;;7.18;4.78;;;;;;;29.82;31.80;99397.16;5112454;28;41156;-78
2024/03/21 10:23:41;;;;;;;5.53;4.70;;;;;;;29.20;31.87;99390.81;5112181;28;39773;-81
2024/03/21 10:26:14;;;;;;;7.00;5.15;;;;;;;29.20;33.07;99395.41;5113608;28;42068;-80
2024/03/21 10:28:41;;;;;;;6.72;6.13;;;;;;;29.86;31.77;99398.41;5112266;28;43776;-81
2024/03/21 10:31:13;;;;;;;7.55;6.75;;;;;;;30.06;31.14;99404.78;5114143;28;42351;-80
2024/03/21 10:33:46;;;;;;;9.15;7.78;;;;;;;29.31;31.20;99411.22;5111938;28;40985;-80
2024/03/21 10:36:15;;;;;;;8.55;7.63;;;;;;;29.13;31.38;99408.19;5113016;28;43329;-81
2024/03/21 10:38:43;;;;;;;10.05;7.07;;;;;;;28.75;31.16;99410.44;5096126;28;42506;-79
2024/03/21 10:41:18;;;;;;;7.55;6.75;;;;;;;29.00;31.47;99413.56;5113297;28;42162;-79
2024/03/21 10:43:48;;;;;;;9.15;7.20;;;;;;;28.70;31.73;99408.28;5111556;28;40857;-81
2024/03/21 10:46:19;;;;;;;7.75;6.18;;;;;;;30.20;31.00;99411.97;5096259;28;41004;-78
2024/03/21 10:48:47;;;;;;;7.03;6.35;;;;;;;30.04;29.46;99412.38;5112728;28;42614;-79
2024/03/21 10:51:19;;;;;;;7.97;5.53;;;;;;;31.46;29.64;99423.63;5112969;28;42346;-78
2024/03/21 10:53:54;;;;;;;6.18;5.05;;;;;;;33.78;27.02;99418.75;5096318;28;40564;-82
2024/03/21 10:56:26;;;;;;;5.53;4.88;;;;;;;35.50;24.77;99454.44;5113926;28;42369;-81
2024/03/21 10:58:57;;;;;;;6.38;5.78;;;;;;;34.17;25.26;99455.00;5114125;28;42970;-79
2024/03/21 11:01:38;;;;;;;8.23;6.68;;;;;;;32.39;26.61;99446.75;5111931;28;42203;-77
2024/03/21 11:04:07;;;;;;;10.57;9.50;;;;;;;30.73;27.51;99433.88;5095669;28;41027;-80
2024/03/21 11:06:35;;;;;;;9.27;8.32;;;;;;;29.33;29.03;99436.41;5112241;28;42749;-78
2024/03/21 11:09:03;;;;;;;11.17;9.93;;;;;;;28.02;30.29;99430.72;5112406;28;41799;-77
2024/03/21 11:11:31;;;;;;;12.07;10.43;;;;;;;27.05;32.05;99411.09;5113877;28;43211;-78
2024/03/21 11:14:01;;;;;;;12.03;9.80;;;;;;;27.04;32.26;99420.28;5113932;28;40415;-78
2024/03/21 11:16:29;;;;;;;11.43;9.80;;;;;;;26.83;32.04;99424.53;5112155;28;40560;-77
2024/03/21 11:18:56;;;;;;;11.00;9.53;;;;;;;27.05;32.53;99427.41;5113738;28;42912;-79
2024/03/21 11:21:25;;;;;;;10.73;9.70;;;;;;;27.73;31.33;99442.53;5112478;28;41309;-79
2024/03/21 11:23:52;;;;;;;10.40;9.13;;;;;;;28.19;30.34;99454.81;5112079;28;39237;-78
2024/03/21 11:26:21;;;;;;;11.80;9.20;;;;;;;27.74;30.64;99455.13;5111906;28;41653;-78
2024/03/21 11:28:50;;;;;;;10.70;9.50;;;;;;;28.43;30.00;99455.47;5095369;28;44465;-78
2024/03/21 11:31:19;;;;;;;9.50;8.60;;;;;;;29.20;29.51;99442.63;5111372;27;42976;-78
2024/03/21 11:33:46;;;;;;;10.13;8.93;;;;;;;29.59;28.35;99452.94;5112210;28;40444;-78
2024/03/21 11:36:14;;;;;;;10.00;9.00;;;;;;;29.00;29.42;99451.75;5111973;28;40713;-78
2024/03/21 11:38:42;;;;;;;10.57;8.27;;;;;;;29.11;29.35;99453.91;5112460;28;42715;-81
2024/03/21 11:41:19;;;;;;;9.20;8.03;;;;;;;30.28;28.29;99455.50;5112136;28;42501;-79
2024/03/21 11:43:47;;;;;;;9.10;7.88;;;;;;;31.40;28.37;99446.41;5109599;28;40047;-79